Time;durP1;ratioP1;P1;durP2;ratioP2;P2;SDS_P1;SDS_P2;PMS_P1;PMS_P2;Temp;Humidity;BMP_temperature;BMP_pressure;BME280_temperature;BME280_humidity;BME280_pressure;Samples;Min_cycle;Max_cycle;Signal;HPM_P1;HPM_P2
2023/12/23 00:02:12;;;;;;;4.75;2.10;;;;;;;;;;8564469;27;20042;-93
2023/12/23 00:06:14;;;;;;;7.93;2.47;;;;;;;;;;8546934;27;20059;-92
2023/12/23 00:25:02;;;;;;;3.03;1.73;;;;;;;;;;8466751;28;20497;-94
2023/12/23 00:29:42;;;;;;;5.45;1.50;;;;;;;;;;8490089;28;20108;-93
2023/12/23 00:33:47;;;;;;;3.08;1.90;;;;;;;;;;8483762;28;20474;-89
2023/12/23 00:43:10;;;;;;;4.20;1.73;;;;;;;;;;8424101;28;20086;-94
2023/12/23 00:57:05;;;;;;;7.40;1.90;;;;;;;;;;8570716;22;20086;-93
2023/12/23 01:01:10;;;;;;;10.65;2.10;;;;;;;;;;8461852;28;20072;-89
2023/12/23 01:05:22;;;;;;;4.00;1.88;;;;;;;;;;8455259;28;20108;-92
2023/12/23 01:09:25;;;;;;;8.48;2.20;;;;;;;;;;8448283;28;20044;-91
2023/12/23 01:13:28;;;;;;;5.93;1.95;;;;;;;;;;8456952;28;20475;-92
2023/12/23 01:17:33;;;;;;;12.98;2.30;;;;;;;;;;8436071;28;20506;-92
2023/12/23 01:21:36;;;;;;;9.15;2.30;;;;;;;;;;8435730;28;20479;-91
2023/12/23 01:25:39;;;;;;;3.30;1.70;;;;;;;;;;8452347;28;20495;-92
2023/12/23 01:29:42;;;;;;;8.48;2.60;;;;;;;;;;8463149;28;20052;-93
2023/12/23 01:33:46;;;;;;;5.85;1.95;;;;;;;;;;8467594;28;20069;-94
2023/12/23 01:37:49;;;;;;;4.35;2.08;;;;;;;;;;8442421;28;20040;-90
2023/12/23 01:41:52;;;;;;;6.70;2.67;;;;;;;;;;8453650;28;20047;-88
2023/12/23 01:45:58;;;;;;;8.85;2.22;;;;;;;;;;8459030;28;20047;-92
2023/12/23 01:50:27;;;;;;;9.02;2.72;;;;;;;;;;8435827;28;20040;-90
2023/12/23 01:54:31;;;;;;;7.63;2.45;;;;;;;;;;8438316;28;20051;-92
2023/12/23 01:58:34;;;;;;;7.40;3.00;;;;;;;;;;8450266;28;20177;-92
2023/12/23 02:02:40;;;;;;;5.32;2.50;;;;;;;;;;8434772;28;20048;-89
2023/12/23 02:06:46;;;;;;;4.45;2.33;;;;;;;;;;8435132;28;20449;-91
2023/12/23 02:10:55;;;;;;;5.70;2.30;;;;;;;;;;8433698;28;20044;-92
2023/12/23 02:20:15;;;;;;;6.03;1.98;;;;;;;;;;8390948;28;20105;-92
2023/12/23 02:24:47;;;;;;;5.65;2.25;;;;;;;;;;8441311;28;20114;-93
2023/12/23 02:28:52;;;;;;;3.90;1.70;;;;;;;;;;8447827;28;20075;-92
2023/12/23 02:33:43;;;;;;;6.65;2.00;;;;;;;;;;8459908;28;20628;-93
2023/12/23 02:43:14;;;;;;;2.05;1.50;;;;;;;;;;8364650;28;20120;-93
2023/12/23 02:47:17;;;;;;;7.20;2.20;;;;;;;;;;8368857;28;20068;-93
2023/12/23 02:51:20;;;;;;;4.63;2.00;;;;;;;;;;8395741;28;20158;-89
2023/12/23 02:56:13;;;;;;;2.88;2.10;;;;;;;;;;8423323;28;20052;-92
2023/12/23 03:00:18;;;;;;;2.28;1.65;;;;;;;;;;8437183;28;20067;-91
2023/12/23 03:04:40;;;;;;;7.22;2.63;;;;;;;;;;8454987;28;20043;-88
2023/12/23 03:08:43;;;;;;;2.92;1.90;;;;;;;;;;8441313;28;20553;-88
2023/12/23 03:12:45;;;;;;;7.63;2.10;;;;;;;;;;8457291;28;20520;-91
2023/12/23 03:16:50;;;;;;;4.35;2.10;;;;;;;;;;8443714;28;20376;-90
2023/12/23 03:20:53;;;;;;;5.35;2.17;;;;;;;;;;8444018;28;20039;-91
2023/12/23 03:24:56;;;;;;;4.40;2.03;;;;;;;;;;8437351;28;20064;-93
2023/12/23 03:28:58;;;;;;;12.07;2.92;;;;;;;;;;8450722;28;20529;-92
2023/12/23 03:37:45;;;;;;;4.88;2.08;;;;;;;;;;8453504;22;20130;-93
2023/12/23 03:41:48;;;;;;;2.63;1.98;;;;;;;;;;8497495;27;20394;-94
2023/12/23 03:45:51;;;;;;;3.13;1.40;;;;;;;;;;8482479;28;20040;-93
2023/12/23 03:50:57;;;;;;;5.32;2.63;;;;;;;;;;8523066;22;20060;-93
2023/12/23 03:55:01;;;;;;;4.03;1.70;;;;;;;;;;8449883;28;20078;-90
2023/12/23 03:59:52;;;;;;;3.88;1.80;;;;;;;;;;8465660;28;20088;-94
2023/12/23 04:03:55;;;;;;;9.02;1.92;;;;;;;;;;8414065;28;20059;-91
2023/12/23 04:07:58;;;;;;;2.25;1.63;;;;;;;;;;8434444;28;20048;-92
2023/12/23 04:12:02;;;;;;;3.03;1.92;;;;;;;;;;8431202;28;20053;-93
2023/12/23 04:16:06;;;;;;;2.38;1.50;;;;;;;;;;8444600;28;20169;-93
2023/12/23 04:20:09;;;;;;;5.40;2.03;;;;;;;;;;8463630;28;20074;-92
2023/12/23 04:29:06;;;;;;;;;;;;;;;;;;8447880;28;20104;-92
2023/12/23 04:33:10;;;;;;;4.63;2.08;;;;;;;;;;8459961;28;19982;-90
2023/12/23 04:37:13;;;;;;;2.35;1.63;;;;;;;;;;8420559;28;20507;-94
2023/12/23 04:41:48;;;;;;;4.30;2.13;;;;;;;;;;8438863;28;20048;-92
2023/12/23 04:45:52;;;;;;;8.40;2.45;;;;;;;;;;8442350;28;20065;-93
2023/12/23 04:49:55;;;;;;;3.22;1.98;;;;;;;;;;8461001;28;20533;-93
2023/12/23 04:53:58;;;;;;;5.45;1.80;;;;;;;;;;8441168;28;20048;-91
2023/12/23 04:58:16;;;;;;;2.70;1.83;;;;;;;;;;8437599;28;20048;-90
2023/12/23 05:02:21;;;;;;;3.35;1.58;;;;;;;;;;8479494;28;20043;-90
2023/12/23 05:06:24;;;;;;;6.45;2.03;;;;;;;;;;8502571;28;20040;-90
2023/12/23 05:10:51;;;;;;;6.55;2.40;;;;;;;;;;8927676;22;20060;-93
2023/12/23 05:14:54;;;;;;;4.30;2.00;;;;;;;;;;8454650;28;20047;-89
2023/12/23 05:18:59;;;;;;;7.38;2.45;;;;;;;;;;8444973;28;20467;-94
2023/12/23 05:23:30;;;;;;;6.70;2.15;;;;;;;;;;8602778;22;20056;-94
2023/12/23 05:28:10;;;;;;;10.05;3.40;;;;;;;;;;8470204;28;20047;-93
2023/12/23 05:32:13;;;;;;;7.07;2.20;;;;;;;;;;8468586;28;20395;-89
2023/12/23 05:36:17;;;;;;;2.35;1.77;;;;;;;;;;8437035;28;20048;-93
2023/12/23 05:45:34;;;;;;;5.28;2.00;;;;;;;;;;8472075;28;20046;-88
2023/12/23 05:50:11;;;;;;;3.00;2.10;;;;;;;;;;8462359;28;20044;-92
2023/12/23 05:54:16;;;;;;;2.38;1.70;;;;;;;;;;8440053;28;20079;-92
2023/12/23 05:58:19;;;;;;;3.17;2.10;;;;;;;;;;8451360;28;20453;-91
2023/12/23 06:02:22;;;;;;;5.30;2.25;;;;;;;;;;8468156;28;20169;-92
2023/12/23 06:06:25;;;;;;;10.43;2.30;;;;;;;;;;8456881;28;20108;-91
2023/12/23 06:10:30;;;;;;;2.13;1.42;;;;;;;;;;8441521;28;20067;-88
2023/12/23 06:15:04;;;;;;;7.78;2.40;;;;;;;;;;8414207;28;20035;-91
2023/12/23 06:19:08;;;;;;;3.60;2.38;;;;;;;;;;8501076;28;20042;-90
2023/12/23 06:23:11;;;;;;;8.68;2.88;;;;;;;;;;8475454;28;20345;-89
2023/12/23 06:27:37;;;;;;;5.40;2.13;;;;;;;;;;8454839;28;20044;-94
2023/12/23 06:32:00;;;;;;;5.20;1.95;;;;;;;;;;8455801;28;20114;-95
2023/12/23 06:36:04;;;;;;;3.92;1.60;;;;;;;;;;8450865;28;20119;-93
2023/12/23 06:40:11;;;;;;;11.73;3.97;;;;;;;;;;8467610;28;20074;-92
2023/12/23 06:44:28;;;;;;;6.47;2.42;;;;;;;;;;8447296;28;20040;-93
2023/12/23 06:48:31;;;;;;;5.65;2.58;;;;;;;;;;8445432;28;20048;-92
2023/12/23 06:52:34;;;;;;;5.78;2.08;;;;;;;;;;8426120;28;20097;-94
2023/12/23 06:56:56;;;;;;;5.15;2.47;;;;;;;;;;8432785;28;20411;-94
2023/12/23 07:01:01;;;;;;;5.40;2.25;;;;;;;;;;8444631;28;20043;-89
2023/12/23 07:05:53;;;;;;;3.85;2.20;;;;;;;;;;8440017;28;20044;-93
2023/12/23 07:09:58;;;;;;;;;;;;;;;;;;8348984;28;20083;-90
2023/12/23 07:14:01;;;;;;;7.38;2.60;;;;;;;;;;8438598;28;19919;-94
2023/12/23 07:18:32;;;;;;;8.85;2.95;;;;;;;;;;8434694;28;20067;-93
2023/12/23 07:22:35;;;;;;;7.15;2.13;;;;;;;;;;8430487;28;20097;-92
2023/12/23 07:26:38;;;;;;;11.45;3.13;;;;;;;;;;8434237;28;20051;-90
2023/12/23 07:30:44;;;;;;;1.67;1.55;;;;;;;;;;8435889;28;20092;-91
2023/12/23 07:34:49;;;;;;;4.88;2.60;;;;;;;;;;8470137;28;20038;-93
2023/12/23 07:39:24;;;;;;;4.03;2.20;;;;;;;;;;8468014;28;20047;-94
2023/12/23 07:43:27;;;;;;;4.43;2.53;;;;;;;;;;8338793;28;20132;-93
2023/12/23 07:47:31;;;;;;;6.20;2.72;;;;;;;;;;8392211;28;20059;-89
2023/12/23 07:51:40;;;;;;;6.15;2.35;;;;;;;;;;8458992;28;20510;-92
2023/12/23 07:55:43;;;;;;;7.28;3.00;;;;;;;;;;8455030;28;20063;-92
2023/12/23 08:53:30;;;;;;;6.93;2.58;;;;;;;;;;9023655;23;20082;-92
2023/12/23 08:57:33;;;;;;;13.43;3.00;;;;;;;;;;8273131;28;20133;-88
2023/12/23 09:01:38;;;;;;;4.80;2.33;;;;;;;;;;8278882;28;20130;-89
2023/12/23 09:05:42;;;;;;;5.53;2.65;;;;;;;;;;8277593;28;20088;-92
2023/12/23 09:09:47;;;;;;;3.95;2.20;;;;;;;;;;8256521;28;20047;-90
2023/12/23 09:13:51;;;;;;;7.82;2.70;;;;;;;;;;8245065;28;20042;-89
2023/12/23 09:17:58;;;;;;;3.83;2.00;;;;;;;;;;8257613;28;20081;-94
2023/12/23 09:22:04;;;;;;;4.68;2.80;;;;;;;;;;8257050;28;20514;-89
2023/12/23 09:26:10;;;;;;;3.65;2.00;;;;;;;;;;8251024;28;20042;-89
2023/12/23 09:30:14;;;;;;;5.72;3.25;;;;;;;;;;8271693;28;20046;-91
2023/12/23 09:34:31;;;;;;;3.63;1.90;;;;;;;;;;8278635;28;20081;-92
2023/12/23 09:38:34;;;;;;;7.25;2.45;;;;;;;;;;8272426;28;20053;-92
2023/12/23 09:42:39;;;;;;;2.30;1.65;;;;;;;;;;8437674;23;20058;-91
2023/12/23 09:46:42;;;;;;;3.17;1.98;;;;;;;;;;8271352;28;20402;-89
2023/12/23 09:50:46;;;;;;;2.80;1.90;;;;;;;;;;8253980;28;20494;-89
2023/12/23 09:54:58;;;;;;;1.63;1.52;;;;;;;;;;8273068;28;20569;-91
2023/12/23 09:59:03;;;;;;;3.63;1.90;;;;;;;;;;8270974;28;20490;-89
2023/12/23 10:08:24;;;;;;;3.53;1.73;;;;;;;;;;8214332;28;20423;-89
2023/12/23 10:12:27;;;;;;;6.10;1.90;;;;;;;;;;8242156;28;20051;-91
2023/12/23 10:21:44;;;;;;;4.15;2.08;;;;;;;;;;8222886;28;20105;-91
2023/12/23 10:25:47;;;;;;;5.70;2.58;;;;;;;;;;8253557;28;20050;-93
2023/12/23 10:29:52;;;;;;;10.02;2.90;;;;;;;;;;8270726;28;20042;-90
2023/12/23 10:38:21;;;;;;;4.18;2.58;;;;;;;;;;8239892;28;20058;-93
2023/12/23 10:42:27;;;;;;;2.45;1.92;;;;;;;;;;8245010;28;20085;-91
2023/12/23 10:46:32;;;;;;;2.75;1.85;;;;;;;;;;8248068;28;20097;-91
2023/12/23 10:50:36;;;;;;;7.05;2.22;;;;;;;;;;8285813;28;20073;-90
2023/12/23 10:54:40;;;;;;;3.05;2.00;;;;;;;;;;8250231;28;20053;-87
2023/12/23 10:58:46;;;;;;;6.78;3.15;;;;;;;;;;8237794;28;20051;-91
2023/12/23 11:02:53;;;;;;;5.53;2.22;;;;;;;;;;8242136;28;20050;-88
2023/12/23 11:07:01;;;;;;;5.57;2.70;;;;;;;;;;8247700;28;20047;-90
2023/12/23 11:11:06;;;;;;;4.00;2.40;;;;;;;;;;8249763;28;20058;-90
2023/12/23 11:15:25;;;;;;;4.88;1.95;;;;;;;;;;8240691;28;20125;-90
2023/12/23 11:19:28;;;;;;;9.32;2.53;;;;;;;;;;8234255;28;20082;-89
2023/12/23 11:23:36;;;;;;;6.20;2.55;;;;;;;;;;8233684;28;20450;-90
2023/12/23 11:32:13;;;;;;;5.80;2.17;;;;;;;;;;8348257;23;20063;-88
2023/12/23 11:36:16;;;;;;;6.40;1.90;;;;;;;;;;8234816;28;20050;-88
2023/12/23 11:40:20;;;;;;;8.48;2.85;;;;;;;;;;8231877;28;20045;-90
2023/12/23 11:44:26;;;;;;;16.33;3.55;;;;;;;;;;8230856;28;21710;-90
2023/12/23 11:48:30;;;;;;;4.72;2.38;;;;;;;;;;8232645;28;20453;-91
2023/12/23 11:52:34;;;;;;;10.45;4.20;;;;;;;;;;8234929;28;20450;-90
2023/12/23 11:56:37;;;;;;;13.77;4.65;;;;;;;;;;8217096;28;20129;-90
2023/12/23 12:00:42;;;;;;;3.17;2.22;;;;;;;;;;8237115;28;20106;-86
2023/12/23 12:04:45;;;;;;;7.38;2.95;;;;;;;;;;8255574;28;20055;-88
2023/12/23 12:08:48;;;;;;;10.30;3.97;;;;;;;;;;8238322;28;20502;-90
2023/12/23 12:12:52;;;;;;;7.30;2.85;;;;;;;;;;8218001;28;20065;-90
2023/12/23 12:16:57;;;;;;;9.15;2.63;;;;;;;;;;8227788;28;20074;-87
2023/12/23 12:21:00;;;;;;;11.77;5.45;;;;;;;;;;8255962;28;20077;-88
2023/12/23 12:25:04;;;;;;;8.93;2.55;;;;;;;;;;8253079;28;20463;-89
2023/12/23 12:29:10;;;;;;;11.15;4.10;;;;;;;;;;8255950;28;20066;-85
2023/12/23 12:33:16;;;;;;;6.05;2.90;;;;;;;;;;8233779;28;20082;-90
2023/12/23 12:37:19;;;;;;;11.52;4.07;;;;;;;;;;8232101;28;20039;-89
2023/12/23 12:41:23;;;;;;;7.55;2.97;;;;;;;;;;8231990;28;20051;-90
2023/12/23 12:45:27;;;;;;;6.97;3.13;;;;;;;;;;8231658;28;20499;-89
2023/12/23 12:49:52;;;;;;;7.65;3.45;;;;;;;;;;8231411;28;20042;-90
2023/12/23 12:54:11;;;;;;;12.05;4.05;;;;;;;;;;8235232;28;20047;-89
2023/12/23 12:58:14;;;;;;;9.32;4.38;;;;;;;;;;8227324;28;20069;-89
2023/12/23 13:02:18;;;;;;;6.05;3.03;;;;;;;;;;8235809;28;20145;-90
2023/12/23 13:06:23;;;;;;;12.18;4.32;;;;;;;;;;8237315;28;20043;-89
2023/12/23 13:10:26;;;;;;;14.00;7.47;;;;;;;;;;8236658;28;20153;-88
2023/12/23 13:14:31;;;;;;;6.47;3.22;;;;;;;;;;8236795;28;20061;-90
2023/12/23 13:18:34;;;;;;;15.90;5.32;;;;;;;;;;8237084;28;20513;-88
2023/12/23 13:22:38;;;;;;;5.72;3.60;;;;;;;;;;8236421;28;20078;-88
2023/12/23 13:26:55;;;;;;;5.75;2.80;;;;;;;;;;8236582;28;20042;-89
2023/12/23 13:30:58;;;;;;;10.00;3.67;;;;;;;;;;8235468;28;20047;-88
2023/12/23 13:35:01;;;;;;;10.18;3.17;;;;;;;;;;8236517;28;20074;-88
2023/12/23 13:39:08;;;;;;;9.85;3.10;;;;;;;;;;8235787;28;20055;-89
2023/12/23 13:43:13;;;;;;;9.65;3.13;;;;;;;;;;8236116;28;20074;-89
2023/12/23 13:47:16;;;;;;;30.02;10.77;;;;;;;;;;8236177;28;20058;-88
2023/12/23 13:51:19;;;;;;;6.03;3.22;;;;;;;;;;8235896;28;20047;-89
2023/12/23 13:55:24;;;;;;;8.65;3.47;;;;;;;;;;8235576;28;20505;-89
2023/12/23 13:59:27;;;;;;;9.98;3.35;;;;;;;;;;8235661;28;20050;-88
2023/12/23 14:03:30;;;;;;;6.55;2.60;;;;;;;;;;8235215;28;20047;-89
2023/12/23 14:07:33;;;;;;;5.72;2.30;;;;;;;;;;8235601;28;20813;-89
2023/12/23 14:11:37;;;;;;;8.68;3.10;;;;;;;;;;8234884;28;20089;-90
2023/12/23 14:15:40;;;;;;;10.82;3.65;;;;;;;;;;8234442;28;20053;-89
2023/12/23 14:19:52;;;;;;;8.70;2.70;;;;;;;;;;8234761;28;20057;-90
2023/12/23 14:23:58;;;;;;;12.52;3.60;;;;;;;;;;8234778;28;20133;-90
2023/12/23 14:28:02;;;;;;;7.75;3.38;;;;;;;;;;8235308;28;20047;-90
2023/12/23 14:32:06;;;;;;;10.20;2.85;;;;;;;;;;8234672;28;20061;-90
2023/12/23 14:36:09;;;;;;;8.55;3.95;;;;;;;;;;8234307;28;20073;-88
2023/12/23 14:40:12;;;;;;;11.73;3.55;;;;;;;;;;8234533;28;20049;-88
2023/12/23 14:44:51;;;;;;;6.70;2.55;;;;;;;;;;8234296;28;20051;-90
2023/12/23 14:48:56;;;;;;;7.75;3.10;;;;;;;;;;8232343;28;20105;-89
2023/12/23 14:52:59;;;;;;;11.88;3.55;;;;;;;;;;8235740;28;20046;-90
2023/12/23 14:57:01;;;;;;;9.80;2.58;;;;;;;;;;8233458;28;20067;-89
2023/12/23 15:01:04;;;;;;;7.13;2.70;;;;;;;;;;8233732;28;20051;-90
2023/12/23 15:05:09;;;;;;;7.93;2.85;;;;;;;;;;8233847;28;20078;-88
2023/12/23 15:09:12;;;;;;;12.30;3.50;;;;;;;;;;8234396;28;20050;-90
2023/12/23 15:13:19;;;;;;;8.23;2.42;;;;;;;;;;8234200;28;20060;-90
2023/12/23 15:17:22;;;;;;;9.93;2.75;;;;;;;;;;8232385;28;20055;-89
2023/12/23 15:21:28;;;;;;;4.30;2.60;;;;;;;;;;8234101;28;20097;-89
2023/12/23 15:25:30;;;;;;;12.02;3.00;;;;;;;;;;8233475;28;20129;-89
2023/12/23 15:29:33;;;;;;;7.28;3.83;;;;;;;;;;8233027;28;20051;-91
2023/12/23 15:33:45;;;;;;;5.88;3.13;;;;;;;;;;8233188;28;20176;-90
2023/12/23 15:37:50;;;;;;;12.57;3.75;;;;;;;;;;8233104;28;20050;-89
2023/12/23 15:41:53;;;;;;;12.68;3.22;;;;;;;;;;8233998;28;20483;-90
2023/12/23 15:45:56;;;;;;;12.60;4.40;;;;;;;;;;8232817;28;20118;-88
2023/12/23 15:49:59;;;;;;;8.25;3.47;;;;;;;;;;8233008;28;20093;-88
2023/12/23 15:54:04;;;;;;;9.88;3.25;;;;;;;;;;8232837;28;20062;-90
2023/12/23 15:58:07;;;;;;;12.95;6.10;;;;;;;;;;8233252;28;20539;-91
2023/12/23 16:02:10;;;;;;;6.72;3.33;;;;;;;;;;8232496;28;20495;-87
2023/12/23 16:06:16;;;;;;;15.75;5.30;;;;;;;;;;8232985;28;20051;-90
2023/12/23 16:10:21;;;;;;;7.88;3.72;;;;;;;;;;8232421;28;20066;-90
2023/12/23 16:14:25;;;;;;;11.05;3.08;;;;;;;;;;8232647;28;20526;-88
2023/12/23 16:18:27;;;;;;;6.80;2.88;;;;;;;;;;8236184;28;20050;-89
2023/12/23 16:22:30;;;;;;;11.50;3.65;;;;;;;;;;8237801;28;20096;-88
2023/12/23 16:26:35;;;;;;;8.23;3.38;;;;;;;;;;8232856;28;20431;-89
2023/12/23 16:30:38;;;;;;;7.32;2.95;;;;;;;;;;8238574;28;20495;-89
2023/12/23 16:34:41;;;;;;;5.07;2.55;;;;;;;;;;8238330;28;20078;-89
2023/12/23 16:38:44;;;;;;;8.60;2.65;;;;;;;;;;8238442;28;20109;-90
2023/12/23 16:42:48;;;;;;;13.15;3.45;;;;;;;;;;8238350;28;20785;-87
2023/12/23 16:46:51;;;;;;;8.05;3.85;;;;;;;;;;8239009;28;20128;-89
2023/12/23 16:50:54;;;;;;;7.60;4.30;;;;;;;;;;8238926;28;20074;-90
2023/12/23 16:54:57;;;;;;;7.00;3.55;;;;;;;;;;8241815;28;20063;-89
2023/12/23 16:59:02;;;;;;;11.05;4.43;;;;;;;;;;8239200;28;20097;-90
2023/12/23 17:03:06;;;;;;;8.38;3.90;;;;;;;;;;8237838;28;20090;-91
2023/12/23 17:12:56;;;;;;;10.90;2.95;;;;;;;;;;8174102;28;20050;-89
2023/12/23 17:17:01;;;;;;;14.00;4.60;;;;;;;;;;8235873;28;20197;-87
2023/12/23 17:21:04;;;;;;;12.95;3.83;;;;;;;;;;8240339;28;20050;-90
2023/12/23 17:26:10;;;;;;;12.98;4.07;;;;;;;;;;8238916;28;20125;-89
2023/12/23 17:30:16;;;;;;;9.52;4.50;;;;;;;;;;8161525;28;20058;-90
2023/12/23 17:34:23;;;;;;;7.97;4.20;;;;;;;;;;8235991;28;20051;-88
2023/12/23 17:38:26;;;;;;;8.50;3.20;;;;;;;;;;8237916;28;20474;-88
2023/12/23 17:42:29;;;;;;;12.43;4.75;;;;;;;;;;8233309;28;20411;-89
2023/12/23 17:46:50;;;;;;;11.05;5.00;;;;;;;;;;8241390;28;20518;-90
2023/12/23 17:50:55;;;;;;;13.20;5.20;;;;;;;;;;8239421;28;20053;-91
2023/12/23 17:54:59;;;;;;;14.50;5.07;;;;;;;;;;8243548;28;20059;-90
2023/12/23 17:59:03;;;;;;;14.70;5.63;;;;;;;;;;8238954;28;20082;-89
2023/12/23 18:03:06;;;;;;;13.65;5.57;;;;;;;;;;8237526;28;20051;-88
2023/12/23 18:07:14;;;;;;;10.95;4.53;;;;;;;;;;8236284;28;20157;-88
2023/12/23 18:11:17;;;;;;;9.93;4.75;;;;;;;;;;8236806;28;20514;-89
2023/12/23 18:15:20;;;;;;;10.18;4.90;;;;;;;;;;8241354;28;20074;-89
2023/12/23 18:19:23;;;;;;;8.18;3.78;;;;;;;;;;8240464;28;20046;-91
2023/12/23 18:23:27;;;;;;;23.52;8.25;;;;;;;;;;8239088;28;20047;-91
2023/12/23 18:27:30;;;;;;;9.20;3.67;;;;;;;;;;8238271;28;20494;-91
2023/12/23 18:31:33;;;;;;;8.15;3.83;;;;;;;;;;8242975;28;20064;-91
2023/12/23 18:35:46;;;;;;;10.55;3.95;;;;;;;;;;8244050;28;20099;-91
2023/12/23 18:39:50;;;;;;;10.90;4.82;;;;;;;;;;8242333;28;20053;-90
2023/12/23 18:43:53;;;;;;;11.07;4.25;;;;;;;;;;8240165;28;20491;-90
2023/12/23 18:47:56;;;;;;;17.63;4.47;;;;;;;;;;8230845;28;20047;-93
2023/12/23 18:51:59;;;;;;;8.82;3.60;;;;;;;;;;8226852;28;20062;-89
2023/12/23 18:56:18;;;;;;;4.88;2.83;;;;;;;;;;8239920;28;20129;-91
2023/12/23 19:00:21;;;;;;;10.30;3.78;;;;;;;;;;8239730;28;20130;-91
2023/12/23 19:08:51;;;;;;;12.73;4.53;;;;;;;;;;8237474;28;20058;-91
2023/12/23 19:12:56;;;;;;;12.93;4.30;;;;;;;;;;8234506;28;20495;-91
2023/12/23 19:16:59;;;;;;;5.68;3.63;;;;;;;;;;8234592;28;20074;-88
2023/12/23 19:21:02;;;;;;;8.98;4.25;;;;;;;;;;8213931;28;20064;-89
2023/12/23 19:25:06;;;;;;;5.13;2.65;;;;;;;;;;8202092;29;20120;-90
2023/12/23 19:29:23;;;;;;;6.85;3.78;;;;;;;;;;8202218;29;20491;-92
2023/12/23 19:33:26;;;;;;;7.50;2.92;;;;;;;;;;8202031;29;20414;-92
2023/12/23 19:37:38;;;;;;;11.27;3.42;;;;;;;;;;8202344;29;20051;-93
2023/12/23 19:41:56;;;;;;;8.38;3.35;;;;;;;;;;8202437;29;20043;-91
2023/12/23 19:46:00;;;;;;;5.63;3.33;;;;;;;;;;8226282;28;20427;-93
2023/12/23 19:50:04;;;;;;;12.90;5.35;;;;;;;;;;8239793;28;20133;-92
2023/12/23 19:54:10;;;;;;;9.30;3.97;;;;;;;;;;8243979;28;20054;-96
2023/12/23 19:58:38;;;;;;;9.25;4.38;;;;;;;;;;8250499;28;20625;-96
2023/12/23 20:02:50;;;;;;;12.60;5.28;;;;;;;;;;8253843;28;20047;-94
2023/12/23 20:07:11;;;;;;;8.82;4.13;;;;;;;;;;8253124;28;20054;-96
2023/12/23 20:11:24;;;;;;;9.48;3.67;;;;;;;;;;8250881;28;20050;-94
2023/12/23 20:15:38;;;;;;;6.60;3.50;;;;;;;;;;8251166;28;20061;-96
2023/12/23 20:29:52;;;;;;;9.98;4.25;;;;;;;;;;8225376;28;20077;-91
2023/12/23 20:33:58;;;;;;;8.73;3.50;;;;;;;;;;8271268;28;20085;-90
2023/12/23 20:38:03;;;;;;;8.95;3.13;;;;;;;;;;8254600;28;20055;-92
2023/12/23 20:42:07;;;;;;;10.70;4.07;;;;;;;;;;8271087;28;20477;-91
2023/12/23 20:46:14;;;;;;;12.10;3.40;;;;;;;;;;8270932;28;20066;-91
2023/12/23 20:50:19;;;;;;;11.85;4.47;;;;;;;;;;8270453;28;20042;-90
2023/12/23 20:54:38;;;;;;;8.32;3.70;;;;;;;;;;8270392;28;20062;-91
2023/12/23 20:58:42;;;;;;;10.85;3.90;;;;;;;;;;8271457;28;20057;-92
2023/12/23 21:02:47;;;;;;;8.15;4.18;;;;;;;;;;8269702;28;20134;-91
2023/12/23 21:06:54;;;;;;;7.38;3.40;;;;;;;;;;8269982;28;20049;-90
2023/12/23 21:10:57;;;;;;;10.75;3.15;;;;;;;;;;8270273;28;20050;-90
2023/12/23 21:15:11;;;;;;;8.73;3.35;;;;;;;;;;8269057;28;20054;-90
2023/12/23 21:19:17;;;;;;;10.98;4.93;;;;;;;;;;8237550;28;20047;-90
2023/12/23 21:23:21;;;;;;;8.27;3.95;;;;;;;;;;8237787;28;20069;-90
2023/12/23 21:27:41;;;;;;;7.60;3.47;;;;;;;;;;8255245;28;20062;-90
2023/12/23 21:31:45;;;;;;;8.57;3.38;;;;;;;;;;8268743;28;20384;-90
2023/12/23 21:36:35;;;;;;;9.10;2.83;;;;;;;;;;8268678;28;20080;-91
2023/12/23 21:40:57;;;;;;;6.93;2.83;;;;;;;;;;8250926;28;20054;-89
2023/12/23 21:45:01;;;;;;;8.25;3.15;;;;;;;;;;8268345;28;20046;-90
2023/12/23 21:49:07;;;;;;;5.75;3.08;;;;;;;;;;8268398;28;20050;-89
2023/12/23 21:53:15;;;;;;;9.23;3.58;;;;;;;;;;8268420;28;20046;-90
2023/12/23 21:57:22;;;;;;;5.35;2.75;;;;;;;;;;8268255;28;20092;-89
2023/12/23 22:01:26;;;;;;;6.18;2.67;;;;;;;;;;8268163;28;20049;-89
2023/12/23 22:05:32;;;;;;;7.18;3.38;;;;;;;;;;8267951;28;20410;-90
2023/12/23 22:09:37;;;;;;;5.20;3.08;;;;;;;;;;8268152;28;20073;-89
2023/12/23 22:13:42;;;;;;;8.15;3.28;;;;;;;;;;8263097;28;20534;-90
2023/12/23 22:17:45;;;;;;;11.23;3.20;;;;;;;;;;8253650;28;20082;-89
2023/12/23 22:21:47;;;;;;;7.60;3.03;;;;;;;;;;8254490;28;20140;-91
2023/12/23 22:25:50;;;;;;;7.32;2.92;;;;;;;;;;8265111;28;20087;-90
2023/12/23 22:29:55;;;;;;;8.43;2.95;;;;;;;;;;8224868;28;20578;-91
2023/12/23 22:33:58;;;;;;;8.18;3.03;;;;;;;;;;8256636;28;20397;-92
2023/12/23 22:38:58;;;;;;;6.00;2.83;;;;;;;;;;8246120;28;20050;-89
2023/12/23 22:43:00;;;;;;;11.90;2.67;;;;;;;;;;8240005;28;20058;-90
2023/12/23 22:47:05;;;;;;;5.80;2.95;;;;;;;;;;8266780;28;20129;-88
2023/12/23 22:51:08;;;;;;;4.82;2.30;;;;;;;;;;8234642;28;20134;-89
2023/12/23 22:55:12;;;;;;;6.53;3.13;;;;;;;;;;8234023;28;20047;-89
2023/12/23 22:59:15;;;;;;;7.05;3.13;;;;;;;;;;8217192;28;20081;-90
2023/12/23 23:03:21;;;;;;;11.23;3.08;;;;;;;;;;8220799;28;20055;-90
2023/12/23 23:07:24;;;;;;;8.77;3.30;;;;;;;;;;8298968;28;20046;-88
2023/12/23 23:11:29;;;;;;;7.93;3.22;;;;;;;;;;8299190;28;20048;-90
2023/12/23 23:16:02;;;;;;;4.47;2.53;;;;;;;;;;8298994;28;20558;-92
2023/12/23 23:20:08;;;;;;;7.88;3.03;;;;;;;;;;8298670;28;20131;-90
2023/12/23 23:24:11;;;;;;;6.05;3.05;;;;;;;;;;8297816;28;20429;-90
2023/12/23 23:28:15;;;;;;;6.13;2.80;;;;;;;;;;8297729;28;20042;-90
2023/12/23 23:33:10;;;;;;;8.13;2.58;;;;;;;;;;8297662;28;20049;-90
2023/12/23 23:37:41;;;;;;;7.18;2.28;;;;;;;;;;8265124;28;20399;-90
2023/12/23 23:41:44;;;;;;;7.87;2.57;;;;;;;;;;8267162;28;20582;-89
2023/12/23 23:45:47;;;;;;;3.95;2.30;;;;;;;;;;8239946;28;20054;-90
2023/12/23 23:55:08;;;;;;;7.88;2.38;;;;;;;;;;8193339;28;20637;-89
2023/12/23 23:59:13;;;;;;;4.82;2.50;;;;;;;;;;8232082;28;20141;-90
